createdAt,value
2018-09-27T00:00:41.761Z,0
2018-09-27T00:01:50.398Z,0
2018-09-27T00:02:59.050Z,0
2018-09-27T00:04:07.692Z,0
2018-09-27T00:05:16.334Z,0
2018-09-27T00:06:24.981Z,0
2018-09-27T00:07:33.623Z,0
2018-09-27T00:08:42.276Z,0
2018-09-27T00:09:51.179Z,0
2018-09-27T00:11:00.091Z,0
2018-09-27T00:12:08.993Z,0
2018-09-27T00:13:17.641Z,0
2018-09-27T00:14:26.542Z,0
2018-09-27T00:15:35.188Z,0
2018-09-27T00:16:43.821Z,0
2018-09-27T00:17:52.471Z,0
2018-09-27T00:19:01.376Z,0
2018-09-27T00:20:10.020Z,0
2018-09-27T00:21:18.655Z,0
2018-09-27T00:22:27.561Z,0
2018-09-27T00:23:36.483Z,0
2018-09-27T00:24:45.129Z,0
2018-09-27T00:25:53.772Z,0
2018-09-27T00:27:02.668Z,0
2018-09-27T00:28:11.316Z,0
2018-09-27T00:29:19.956Z,0
2018-09-27T00:30:29.139Z,0
2018-09-27T00:31:37.774Z,0
2018-09-27T00:32:46.692Z,0
2018-09-27T00:33:55.332Z,0
2018-09-27T00:35:03.986Z,0
2018-09-27T00:36:12.618Z,0
2018-09-27T00:37:21.266Z,0
2018-09-27T00:38:29.903Z,0
2018-09-27T00:39:38.554Z,0
2018-09-27T00:40:47.195Z,0
2018-09-27T00:41:55.834Z,0
2018-09-27T00:43:06.090Z,0
2018-09-27T00:44:14.724Z,0
2018-09-27T00:45:23.380Z,0
2018-09-27T00:46:32.546Z,0
2018-09-27T00:47:41.191Z,0
2018-09-27T00:48:49.831Z,0
2018-09-27T00:49:58.747Z,0
2018-09-27T00:51:07.383Z,0
2018-09-27T00:52:16.301Z,0
2018-09-27T00:53:25.188Z,0
2018-09-27T00:54:33.832Z,0
2018-09-27T00:55:42.471Z,0
2018-09-27T00:56:51.117Z,0
2018-09-27T00:57:59.764Z,0
2018-09-27T00:59:08.401Z,0
2018-09-27T01:00:17.308Z,0
2018-09-27T01:01:25.952Z,0
2018-09-27T01:02:34.598Z,0
2018-09-27T01:03:43.235Z,0
2018-09-27T01:04:51.878Z,0
2018-09-27T01:06:00.520Z,0
2018-09-27T01:07:09.166Z,0
2018-09-27T01:08:17.802Z,0
2018-09-27T01:09:26.446Z,0
2018-09-27T01:10:35.088Z,0
2018-09-27T01:11:43.744Z,0
2018-09-27T01:12:52.375Z,0
2018-09-27T01:14:01.019Z,0
2018-09-27T01:15:09.657Z,0
2018-09-27T01:16:18.300Z,0
2018-09-27T01:17:26.940Z,0
2018-09-27T01:18:36.102Z,0
2018-09-27T01:19:45.005Z,0
2018-09-27T01:20:53.911Z,0
2018-09-27T01:22:02.555Z,0
2018-09-27T01:23:11.197Z,0
2018-09-27T01:24:19.840Z,0
2018-09-27T01:25:28.478Z,0
2018-09-27T01:26:37.183Z,0
2018-09-27T01:27:45.768Z,0
2018-09-27T01:28:54.418Z,0
2018-09-27T01:30:03.319Z,0
2018-09-27T01:31:11.965Z,0
2018-09-27T01:32:20.613Z,0
2018-09-27T01:33:29.257Z,0
2018-09-27T01:34:38.160Z,0
2018-09-27T01:35:46.803Z,0
2018-09-27T01:36:55.446Z,0
2018-09-27T01:38:04.618Z,0
2018-09-27T01:39:13.263Z,0
2018-09-27T01:40:21.899Z,0
2018-09-27T01:41:30.542Z,0
2018-09-27T01:42:39.187Z,0
2018-09-27T01:43:48.093Z,0
2018-09-27T01:44:56.731Z,0
2018-09-27T01:46:05.370Z,0
2018-09-27T01:47:14.032Z,0
2018-09-27T01:48:22.655Z,0
2018-09-27T01:49:31.293Z,0
2018-09-27T01:50:40.205Z,0
2018-09-27T01:51:48.841Z,0
2018-09-27T01:52:57.761Z,0
2018-09-27T01:54:06.410Z,0
2018-09-27T01:55:15.046Z,0
2018-09-27T01:56:23.686Z,0
2018-09-27T01:57:32.328Z,0
2018-09-27T01:58:40.977Z,0
2018-09-27T01:59:49.877Z,0
2018-09-27T02:00:58.788Z,0
2018-09-27T02:02:07.419Z,0
2018-09-27T02:03:16.072Z,0
2018-09-27T02:04:24.710Z,0
2018-09-27T02:05:33.356Z,0
2018-09-27T02:06:41.987Z,0
2018-09-27T02:07:50.638Z,0
2018-09-27T02:08:59.273Z,0
2018-09-27T02:10:07.917Z,0
2018-09-27T02:11:16.550Z,0
2018-09-27T02:12:25.194Z,0
2018-09-27T02:13:33.841Z,0
2018-09-27T02:14:42.484Z,0
2018-09-27T02:15:51.130Z,0
2018-09-27T02:17:00.028Z,0
2018-09-27T02:18:08.676Z,0
2018-09-27T02:19:17.315Z,0
2018-09-27T02:20:25.965Z,0
2018-09-27T02:21:34.600Z,0
2018-09-27T02:22:43.506Z,0
2018-09-27T02:23:52.145Z,0
2018-09-27T02:25:00.799Z,0
2018-09-27T02:26:09.431Z,0
2018-09-27T02:27:18.076Z,0
2018-09-27T02:28:26.717Z,0
2018-09-27T02:29:35.371Z,0
2018-09-27T02:30:44.278Z,0
2018-09-27T02:31:52.969Z,0
2018-09-27T02:33:01.606Z,0
2018-09-27T02:34:10.623Z,0
2018-09-27T02:35:19.603Z,0
2018-09-27T02:36:28.566Z,0
2018-09-27T02:37:37.697Z,0
2018-09-27T02:38:46.474Z,0
2018-09-27T02:39:55.231Z,0
2018-09-27T02:41:04.136Z,0
2018-09-27T02:42:12.798Z,0
2018-09-27T02:43:21.675Z,0
2018-09-27T02:44:30.594Z,0
2018-09-27T02:45:39.233Z,0
2018-09-27T02:46:47.883Z,0
2018-09-27T02:47:56.519Z,0
2018-09-27T02:49:05.440Z,0
2018-09-27T02:50:14.669Z,0
2018-09-27T02:51:23.314Z,0
2018-09-27T02:52:31.959Z,0
2018-09-27T02:53:40.867Z,0
2018-09-27T02:54:49.509Z,0
2018-09-27T02:55:58.157Z,0
2018-09-27T02:57:06.808Z,0
2018-09-27T02:58:15.444Z,0
2018-09-27T02:59:24.089Z,0
2018-09-27T03:00:32.736Z,0
2018-09-27T03:01:41.390Z,0
2018-09-27T03:02:50.028Z,0
2018-09-27T03:03:59.207Z,0
2018-09-27T03:05:08.113Z,0
2018-09-27T03:06:17.024Z,0
2018-09-27T03:07:25.671Z,0
2018-09-27T03:08:34.315Z,0
2018-09-27T03:09:43.244Z,0
2018-09-27T03:10:51.881Z,0
2018-09-27T03:12:00.798Z,0
2018-09-27T03:13:09.440Z,0
2018-09-27T03:14:18.085Z,0
2018-09-27T03:15:26.983Z,0
2018-09-27T03:16:35.634Z,0
2018-09-27T03:17:44.280Z,0
2018-09-27T03:18:52.934Z,0
2018-09-27T03:20:01.860Z,0
2018-09-27T03:21:10.515Z,0
2018-09-27T03:22:19.407Z,0
2018-09-27T03:23:28.052Z,0
2018-09-27T03:24:36.688Z,0
2018-09-27T03:25:45.338Z,0
2018-09-27T03:26:53.983Z,0
2018-09-27T03:28:02.891Z,0
2018-09-27T03:29:11.535Z,0
2018-09-27T03:30:20.444Z,0
2018-09-27T03:31:29.090Z,0
2018-09-27T03:32:37.737Z,0
2018-09-27T03:33:46.660Z,0
2018-09-27T03:34:55.560Z,0
2018-09-27T03:36:04.206Z,0
2018-09-27T03:37:12.852Z,0
2018-09-27T03:38:21.500Z,0
2018-09-27T03:39:30.137Z,0
2018-09-27T03:40:39.315Z,0
2018-09-27T03:41:48.111Z,0
2018-09-27T03:42:57.024Z,0
2018-09-27T03:44:05.666Z,0
2018-09-27T03:45:14.581Z,0
2018-09-27T03:46:23.491Z,0
2018-09-27T03:47:32.134Z,0
2018-09-27T03:48:40.787Z,0
2018-09-27T03:49:49.427Z,0
2018-09-27T03:50:58.331Z,0
2018-09-27T03:52:06.987Z,0
2018-09-27T03:53:15.890Z,0
2018-09-27T03:54:24.540Z,0
2018-09-27T03:55:33.182Z,0
2018-09-27T03:56:42.097Z,0
2018-09-27T03:57:50.738Z,0
2018-09-27T03:58:59.649Z,0
2018-09-27T04:00:08.291Z,0
2018-09-27T04:01:16.938Z,0
2018-09-27T04:02:25.850Z,0
2018-09-27T04:03:34.755Z,0
2018-09-27T04:04:43.400Z,0
2018-09-27T04:05:52.037Z,0
2018-09-27T04:07:01.218Z,0
2018-09-27T04:08:10.123Z,0
2018-09-27T04:09:18.763Z,0
2018-09-27T04:10:27.403Z,0
2018-09-27T04:11:36.580Z,0
2018-09-27T04:12:45.649Z,0
2018-09-27T04:13:54.254Z,0
2018-09-27T04:15:02.891Z,0
2018-09-27T04:16:11.538Z,0
2018-09-27T04:17:20.445Z,0
2018-09-27T04:18:29.090Z,0
2018-09-27T04:19:37.729Z,0
2018-09-27T04:20:46.375Z,0
2018-09-27T04:21:55.120Z,0
2018-09-27T04:23:03.662Z,0
2018-09-27T04:24:12.382Z,0
2018-09-27T04:25:21.209Z,0
2018-09-27T04:26:29.851Z,0
2018-09-27T04:27:38.827Z,0
2018-09-27T04:28:47.419Z,0
2018-09-27T04:29:56.061Z,0
2018-09-27T04:31:04.699Z,0
2018-09-27T04:32:13.343Z,0
2018-09-27T04:33:22.258Z,0
2018-09-27T04:34:31.159Z,0
2018-09-27T04:35:40.065Z,0
2018-09-27T04:36:48.708Z,0
2018-09-27T04:37:57.359Z,0
2018-09-27T04:39:05.996Z,0
2018-09-27T04:40:14.646Z,0
2018-09-27T04:41:23.566Z,0
2018-09-27T04:42:32.464Z,0
2018-09-27T04:43:41.631Z,0
2018-09-27T04:44:50.276Z,0
2018-09-27T04:45:59.189Z,0
2018-09-27T04:47:07.815Z,0
2018-09-27T04:48:16.464Z,0
2018-09-27T04:49:25.103Z,0
2018-09-27T04:50:33.748Z,0
2018-09-27T04:51:42.675Z,0
2018-09-27T04:52:51.648Z,0
2018-09-27T04:54:00.290Z,0
2018-09-27T04:55:08.939Z,0
2018-09-27T04:56:17.568Z,0
2018-09-27T04:57:26.210Z,0
2018-09-27T04:58:34.858Z,0
2018-09-27T04:59:43.511Z,0
2018-09-27T05:00:52.147Z,0
2018-09-27T05:02:00.780Z,0
2018-09-27T05:03:09.696Z,0
2018-09-27T05:04:18.334Z,0
2018-09-27T05:05:26.984Z,0
2018-09-27T05:06:35.619Z,0
2018-09-27T05:07:44.265Z,0
2018-09-27T05:08:52.903Z,0
2018-09-27T05:10:01.556Z,0
2018-09-27T05:11:10.190Z,0
2018-09-27T05:12:19.094Z,0
2018-09-27T05:13:27.733Z,0
2018-09-27T05:14:36.384Z,0
2018-09-27T05:15:45.568Z,0
2018-09-27T05:16:54.168Z,0
2018-09-27T05:18:02.809Z,0
2018-09-27T05:19:11.718Z,0
2018-09-27T05:20:20.397Z,0
2018-09-27T05:21:29.324Z,0
2018-09-27T05:22:37.949Z,0
2018-09-27T05:23:46.580Z,0
2018-09-27T05:24:55.231Z,0
2018-09-27T05:26:03.868Z,0
2018-09-27T05:27:12.860Z,0
2018-09-27T05:28:21.475Z,0
2018-09-27T05:29:30.122Z,0
2018-09-27T05:30:38.762Z,0
2018-09-27T05:31:47.406Z,5
2018-09-27T05:32:56.040Z,5
2018-09-27T05:34:04.949Z,5
2018-09-27T05:35:13.595Z,5
2018-09-27T05:36:22.238Z,5
2018-09-27T05:37:30.884Z,5
2018-09-27T05:38:39.518Z,5
2018-09-27T05:39:48.166Z,5
2018-09-27T05:40:56.803Z,5
2018-09-27T05:42:05.457Z,5
2018-09-27T05:43:14.344Z,5
2018-09-27T05:44:22.993Z,10
2018-09-27T05:45:31.922Z,10
2018-09-27T05:46:40.549Z,10
2018-09-27T05:47:49.467Z,10
2018-09-27T05:48:58.109Z,10
2018-09-27T05:50:06.761Z,10
2018-09-27T05:51:15.658Z,10
2018-09-27T05:52:24.313Z,15
2018-09-27T05:53:32.959Z,15
2018-09-27T05:54:41.865Z,15
2018-09-27T05:55:50.846Z,20
2018-09-27T05:56:59.480Z,20
2018-09-27T05:58:08.123Z,20
2018-09-27T05:59:16.766Z,20
2018-09-27T06:00:25.417Z,20
2018-09-27T06:01:34.056Z,20
2018-09-27T06:02:42.700Z,20
2018-09-27T06:03:51.351Z,20
2018-09-27T06:04:59.998Z,25
2018-09-27T06:06:08.637Z,25
2018-09-27T06:07:17.285Z,25
2018-09-27T06:08:26.200Z,25
2018-09-27T06:09:35.541Z,25
2018-09-27T06:10:44.506Z,30
2018-09-27T06:11:53.149Z,30
2018-09-27T06:13:01.792Z,30
2018-09-27T06:14:10.433Z,30
2018-09-27T06:15:19.345Z,30
2018-09-27T06:16:27.989Z,30
2018-09-27T06:17:36.633Z,30
2018-09-27T06:18:45.271Z,35
2018-09-27T06:19:54.302Z,35
2018-09-27T06:21:02.894Z,40
2018-09-27T06:22:11.799Z,40
2018-09-27T06:23:20.437Z,45
2018-09-27T06:24:29.082Z,45
2018-09-27T06:25:37.722Z,45
2018-09-27T06:26:46.368Z,45
2018-09-27T06:27:55.005Z,50
2018-09-27T06:29:03.651Z,50
2018-09-27T06:30:12.298Z,50
2018-09-27T06:31:20.939Z,50
2018-09-27T06:32:29.583Z,50
2018-09-27T06:33:38.601Z,55
2018-09-27T06:34:47.224Z,55
2018-09-27T06:35:56.129Z,55
2018-09-27T06:37:04.775Z,55
2018-09-27T06:38:13.688Z,55
2018-09-27T06:39:22.331Z,55
2018-09-27T06:40:30.974Z,60
2018-09-27T06:41:39.621Z,65
2018-09-27T06:42:48.310Z,70
2018-09-27T06:43:56.904Z,70
2018-09-27T06:45:05.541Z,70
2018-09-27T06:46:14.192Z,75
2018-09-27T06:47:22.834Z,75
2018-09-27T06:48:31.477Z,80
2018-09-27T06:49:40.651Z,80
2018-09-27T06:50:49.291Z,80
2018-09-27T06:51:57.944Z,80
2018-09-27T06:53:06.583Z,85
2018-09-27T06:54:15.232Z,85
2018-09-27T06:55:24.195Z,90
2018-09-27T06:56:32.917Z,90
2018-09-27T06:57:41.898Z,90
2018-09-27T06:58:50.546Z,95
2018-09-27T06:59:59.179Z,90
2018-09-27T07:01:07.831Z,90
2018-09-27T07:02:16.475Z,95
2018-09-27T07:03:25.122Z,100
2018-09-27T07:04:33.757Z,100
2018-09-27T07:05:42.402Z,100
2018-09-27T07:06:51.319Z,105
2018-09-27T07:07:59.963Z,105
2018-09-27T07:09:08.612Z,110
2018-09-27T07:10:17.245Z,100
2018-09-27T07:11:25.895Z,100
2018-09-27T07:12:34.698Z,105
2018-09-27T07:13:43.189Z,105
2018-09-27T07:14:52.202Z,100
2018-09-27T07:16:00.847Z,115
2018-09-27T07:17:09.489Z,115
2018-09-27T07:18:18.403Z,115
2018-09-27T07:19:27.040Z,110
2018-09-27T07:20:36.005Z,105
2018-09-27T07:21:44.919Z,100
2018-09-27T07:22:53.568Z,95
2018-09-27T07:24:02.472Z,95
2018-09-27T07:25:11.170Z,90
2018-09-27T07:26:19.802Z,90
2018-09-27T07:27:28.407Z,90
2018-09-27T07:28:37.066Z,90
2018-09-27T07:29:45.704Z,90
2018-09-27T07:30:54.444Z,90
2018-09-27T07:32:03.115Z,90
2018-09-27T07:33:11.937Z,90
2018-09-27T07:34:20.574Z,90
2018-09-27T07:35:29.228Z,90
2018-09-27T07:36:38.064Z,90
2018-09-27T07:37:46.832Z,90
2018-09-27T07:38:55.760Z,95
2018-09-27T07:40:04.508Z,95
2018-09-27T07:41:13.678Z,95
2018-09-27T07:42:22.361Z,95
2018-09-27T07:43:31.097Z,95
2018-09-27T07:44:39.812Z,95
2018-09-27T07:45:48.383Z,95
2018-09-27T07:46:57.035Z,95
2018-09-27T07:48:05.668Z,90
2018-09-27T07:49:14.316Z,90
2018-09-27T07:50:22.954Z,90
2018-09-27T07:51:31.872Z,90
2018-09-27T07:52:40.512Z,95
2018-09-27T07:53:49.163Z,95
2018-09-27T07:54:57.800Z,95
2018-09-27T07:56:06.451Z,95
2018-09-27T07:57:15.356Z,95
2018-09-27T07:58:24.269Z,95
2018-09-27T07:59:32.902Z,95
2018-09-27T08:00:41.550Z,95
2018-09-27T08:01:50.196Z,95
2018-09-27T08:02:59.336Z,95
2018-09-27T08:04:08.349Z,95
2018-09-27T08:05:16.946Z,95
2018-09-27T08:06:25.858Z,95
2018-09-27T08:07:34.501Z,95
2018-09-27T08:08:43.595Z,100
2018-09-27T08:09:52.415Z,100
2018-09-27T08:11:01.140Z,100
2018-09-27T08:12:09.713Z,105
2018-09-27T08:13:18.629Z,100
2018-09-27T08:14:27.566Z,100
2018-09-27T08:15:36.486Z,100
2018-09-27T08:16:45.449Z,100
2018-09-27T08:17:54.045Z,105
2018-09-27T08:19:03.244Z,105
2018-09-27T08:20:11.891Z,105
2018-09-27T08:21:20.573Z,105
2018-09-27T08:22:29.182Z,105
2018-09-27T08:23:37.835Z,110
2018-09-27T08:24:46.476Z,100
2018-09-27T08:25:55.126Z,100
2018-09-27T08:27:03.763Z,100
2018-09-27T08:28:12.418Z,105
2018-09-27T08:29:21.058Z,105
2018-09-27T08:30:29.708Z,105
2018-09-27T08:31:38.343Z,105
2018-09-27T08:32:47.020Z,105
2018-09-27T08:33:55.917Z,105
2018-09-27T08:35:04.566Z,105
2018-09-27T08:36:13.198Z,105
2018-09-27T08:37:21.845Z,110
2018-09-27T08:38:31.447Z,110
2018-09-27T08:39:40.071Z,110
2018-09-27T08:40:48.719Z,110
2018-09-27T08:41:57.355Z,110
2018-09-27T08:43:06.003Z,110
2018-09-27T08:44:14.647Z,110
2018-09-27T08:45:23.573Z,115
2018-09-27T08:46:31.943Z,115
2018-09-27T08:47:40.587Z,115
2018-09-27T08:48:49.234Z,115
2018-09-27T08:49:58.409Z,115
2018-09-27T08:51:07.048Z,115
2018-09-27T08:52:15.696Z,115
2018-09-27T08:53:24.342Z,115
2018-09-27T08:54:32.990Z,115
2018-09-27T08:55:41.718Z,115
2018-09-27T08:56:50.279Z,115
2018-09-27T08:57:58.921Z,115
2018-09-27T08:59:07.564Z,115
2018-09-27T09:00:16.214Z,115
2018-09-27T09:01:24.876Z,115
2018-09-27T09:02:33.790Z,115
2018-09-27T09:03:42.904Z,115
2018-09-27T09:04:51.488Z,115
2018-09-27T09:06:00.176Z,125
2018-09-27T09:07:08.822Z,120
2018-09-27T09:08:17.462Z,120
2018-09-27T09:09:26.128Z,120
2018-09-27T09:10:34.754Z,120
2018-09-27T09:11:43.415Z,120
2018-09-27T09:12:52.332Z,120
2018-09-27T09:14:01.239Z,120
2018-09-27T09:15:09.947Z,120
2018-09-27T09:16:18.593Z,120
2018-09-27T09:17:27.247Z,120
2018-09-27T09:18:35.894Z,120
2018-09-27T09:19:44.538Z,120
2018-09-27T09:20:53.182Z,125
2018-09-27T09:22:01.833Z,120
2018-09-27T09:23:10.731Z,120
2018-09-27T09:24:19.641Z,120
2018-09-27T09:25:28.298Z,125
2018-09-27T09:26:36.936Z,125
2018-09-27T09:27:45.584Z,125
2018-09-27T09:28:54.225Z,125
2018-09-27T09:30:03.038Z,125
2018-09-27T09:31:11.958Z,125
2018-09-27T09:32:20.601Z,125
2018-09-27T09:33:29.281Z,125
2018-09-27T09:34:38.497Z,125
2018-09-27T09:35:47.145Z,125
2018-09-27T09:36:56.057Z,125
2018-09-27T09:38:04.703Z,125
2018-09-27T09:39:13.349Z,125
2018-09-27T09:40:22.251Z,125
2018-09-27T09:41:30.909Z,125
2018-09-27T09:42:39.549Z,125
2018-09-27T09:43:48.199Z,125
2018-09-27T09:44:56.836Z,125
2018-09-27T09:46:05.491Z,125
2018-09-27T09:47:14.139Z,125
2018-09-27T09:48:23.050Z,125
2018-09-27T09:49:31.947Z,125
2018-09-27T09:50:40.600Z,125
2018-09-27T09:51:49.254Z,125
2018-09-27T09:52:57.900Z,125
2018-09-27T09:54:06.561Z,125
2018-09-27T09:55:15.202Z,125
2018-09-27T09:56:23.867Z,125
2018-09-27T09:57:32.492Z,125
2018-09-27T09:58:41.150Z,125
2018-09-27T09:59:49.785Z,125
2018-09-27T10:00:58.436Z,125
2018-09-27T10:02:07.078Z,125
2018-09-27T10:03:15.734Z,125
2018-09-27T10:04:24.370Z,125
2018-09-27T10:05:33.020Z,125
2018-09-27T10:06:41.662Z,125
2018-09-27T10:07:50.317Z,130
2018-09-27T10:08:59.011Z,130
2018-09-27T10:10:07.605Z,130
2018-09-27T10:11:16.248Z,130
2018-09-27T10:12:24.894Z,130
2018-09-27T10:13:33.554Z,130
2018-09-27T10:14:42.470Z,130
2018-09-27T10:15:51.120Z,130
2018-09-27T10:16:59.755Z,135
2018-09-27T10:18:08.680Z,130
2018-09-27T10:19:17.321Z,130
2018-09-27T10:20:25.972Z,130
2018-09-27T10:21:34.632Z,130
2018-09-27T10:22:43.271Z,130
2018-09-27T10:23:51.914Z,130
2018-09-27T10:25:00.563Z,130
2018-09-27T10:26:09.469Z,130
2018-09-27T10:27:18.156Z,135
2018-09-27T10:28:26.777Z,130
2018-09-27T10:29:35.684Z,130
2018-09-27T10:30:44.596Z,130
2018-09-27T10:31:53.238Z,130
2018-09-27T10:33:02.424Z,135
2018-09-27T10:34:11.147Z,135
2018-09-27T10:35:19.727Z,140
2018-09-27T10:36:28.367Z,130
2018-09-27T10:37:37.017Z,135
2018-09-27T10:38:45.943Z,135
2018-09-27T10:39:54.597Z,135
2018-09-27T10:41:03.239Z,135
2018-09-27T10:42:11.891Z,135
2018-09-27T10:43:20.537Z,135
2018-09-27T10:44:29.452Z,130
2018-09-27T10:45:38.369Z,135
2018-09-27T10:46:47.546Z,135
2018-09-27T10:47:56.458Z,135
2018-09-27T10:49:05.107Z,135
2018-09-27T10:50:14.028Z,135
2018-09-27T10:51:22.967Z,135
2018-09-27T10:52:31.582Z,135
2018-09-27T10:53:40.224Z,135
2018-09-27T10:54:48.873Z,135
2018-09-27T10:55:57.521Z,135
2018-09-27T10:57:06.223Z,135
2018-09-27T10:58:14.816Z,135
2018-09-27T10:59:23.467Z,140
2018-09-27T11:00:32.111Z,135
2018-09-27T11:01:40.760Z,145
2018-09-27T11:02:49.401Z,135
2018-09-27T11:03:58.073Z,140
2018-09-27T11:05:06.702Z,140
2018-09-27T11:06:15.353Z,140
2018-09-27T11:07:24.265Z,140
2018-09-27T11:08:32.908Z,140
2018-09-27T11:09:41.555Z,140
2018-09-27T11:10:50.528Z,140
2018-09-27T11:11:59.428Z,140
2018-09-27T11:13:08.597Z,140
2018-09-27T11:14:17.511Z,140
2018-09-27T11:15:26.178Z,140
2018-09-27T11:16:35.143Z,140
2018-09-27T11:17:43.763Z,140
2018-09-27T11:18:52.409Z,140
2018-09-27T11:20:01.048Z,140
2018-09-27T11:21:09.700Z,145
2018-09-27T11:22:18.349Z,140
2018-09-27T11:23:27.260Z,145
2018-09-27T11:24:35.909Z,145
2018-09-27T11:25:44.590Z,145
2018-09-27T11:26:53.306Z,145
2018-09-27T11:28:01.991Z,145
2018-09-27T11:29:10.765Z,145
2018-09-27T11:30:19.423Z,145
2018-09-27T11:31:28.391Z,145
2018-09-27T11:32:37.050Z,145
2018-09-27T11:33:45.700Z,145
2018-09-27T11:34:54.346Z,145
2018-09-27T11:36:03.105Z,145
2018-09-27T11:37:11.795Z,145
2018-09-27T11:38:20.500Z,145
2018-09-27T11:39:29.526Z,145
2018-09-27T11:40:38.862Z,145
2018-09-27T11:41:47.515Z,145
2018-09-27T11:42:56.342Z,145
2018-09-27T11:44:05.939Z,145
2018-09-27T11:45:14.535Z,145
2018-09-27T11:46:23.187Z,145
2018-09-27T11:47:31.834Z,145
2018-09-27T11:48:40.476Z,145
2018-09-27T11:49:49.208Z,145
2018-09-27T11:50:57.779Z,145
2018-09-27T11:52:06.426Z,145
2018-09-27T11:53:15.068Z,145
2018-09-27T11:54:23.718Z,145
2018-09-27T11:55:32.363Z,145
2018-09-27T11:56:41.010Z,140
2018-09-27T11:57:49.652Z,140
2018-09-27T11:58:58.342Z,140
2018-09-27T12:00:06.953Z,140
2018-09-27T12:01:15.603Z,140
2018-09-27T12:02:24.255Z,140
2018-09-27T12:03:32.899Z,140
2018-09-27T12:04:41.546Z,140
2018-09-27T12:05:50.473Z,140
2018-09-27T12:06:59.116Z,140
2018-09-27T12:08:08.052Z,140
2018-09-27T12:09:16.700Z,140
2018-09-27T12:10:25.628Z,140
2018-09-27T12:11:34.280Z,140
2018-09-27T12:12:42.993Z,140
2018-09-27T12:13:51.662Z,140
2018-09-27T12:15:00.307Z,140
2018-09-27T12:16:09.269Z,140
2018-09-27T12:17:17.912Z,140
2018-09-27T12:18:26.830Z,140
2018-09-27T12:19:35.890Z,140
2018-09-27T12:20:45.126Z,140
2018-09-27T12:21:54.046Z,140
2018-09-27T12:23:03.035Z,140
2018-09-27T12:24:11.908Z,140
2018-09-27T12:25:20.553Z,140
2018-09-27T12:26:29.474Z,140
2018-09-27T12:27:38.123Z,140
2018-09-27T12:28:46.771Z,140
2018-09-27T12:29:55.414Z,140
2018-09-27T12:31:04.361Z,140
2018-09-27T12:32:12.990Z,140
2018-09-27T12:33:21.642Z,140
2018-09-27T12:34:30.285Z,140
2018-09-27T12:35:38.937Z,140
2018-09-27T12:36:47.585Z,140
2018-09-27T12:37:56.238Z,145
2018-09-27T12:39:04.888Z,140
2018-09-27T12:40:13.796Z,140
2018-09-27T12:41:22.451Z,140
2018-09-27T12:42:31.127Z,140
2018-09-27T12:43:39.756Z,140
2018-09-27T12:44:48.394Z,140
2018-09-27T12:45:57.126Z,145
2018-09-27T12:47:06.119Z,140
2018-09-27T12:48:15.291Z,140
2018-09-27T12:49:24.141Z,140
2018-09-27T12:50:32.881Z,140
2018-09-27T12:51:41.513Z,140
2018-09-27T12:52:50.132Z,140
2018-09-27T12:53:58.743Z,135
2018-09-27T12:55:07.386Z,135
2018-09-27T12:56:16.036Z,135
2018-09-27T12:57:24.986Z,135
2018-09-27T12:58:33.698Z,130
2018-09-27T12:59:42.287Z,130
2018-09-27T13:00:50.969Z,130
2018-09-27T13:01:59.832Z,130
2018-09-27T13:03:08.237Z,130
2018-09-27T13:04:16.950Z,130
2018-09-27T13:05:26.166Z,130
2018-09-27T13:06:35.359Z,125
2018-09-27T13:07:44.016Z,125
2018-09-27T13:08:52.716Z,125
2018-09-27T13:10:01.486Z,125
2018-09-27T13:11:09.952Z,125
2018-09-27T13:12:18.781Z,125
2018-09-27T13:13:27.467Z,125
2018-09-27T13:14:36.505Z,120
2018-09-27T13:15:45.141Z,120
2018-09-27T13:16:54.047Z,120
2018-09-27T13:18:02.731Z,120
2018-09-27T13:19:11.969Z,120
2018-09-27T13:20:20.608Z,120
2018-09-27T13:21:29.277Z,120
2018-09-27T13:22:38.204Z,120
2018-09-27T13:23:47.126Z,120
2018-09-27T13:24:55.815Z,120
2018-09-27T13:26:04.421Z,120
2018-09-27T13:27:13.074Z,120
2018-09-27T13:28:21.725Z,120
2018-09-27T13:29:30.379Z,115
2018-09-27T13:30:39.025Z,115
2018-09-27T13:31:47.932Z,115
2018-09-27T13:32:56.590Z,115
2018-09-27T13:34:05.308Z,115
2018-09-27T13:35:14.152Z,115
2018-09-27T13:36:22.798Z,115
2018-09-27T13:37:31.456Z,115
2018-09-27T13:38:40.089Z,110
2018-09-27T13:39:48.748Z,110
2018-09-27T13:40:57.391Z,110
2018-09-27T13:42:06.044Z,110
2018-09-27T13:43:14.687Z,110
2018-09-27T13:44:23.345Z,110
2018-09-27T13:45:31.992Z,110
2018-09-27T13:46:40.643Z,110
2018-09-27T13:47:49.544Z,115
2018-09-27T13:48:58.555Z,105
2018-09-27T13:50:07.404Z,105
2018-09-27T13:51:16.056Z,105
2018-09-27T13:52:24.708Z,105
2018-09-27T13:53:33.609Z,105
2018-09-27T13:54:42.260Z,105
2018-09-27T13:55:50.905Z,105
2018-09-27T13:56:59.639Z,100
2018-09-27T13:58:08.199Z,100
2018-09-27T13:59:16.852Z,100
2018-09-27T14:00:25.496Z,105
2018-09-27T14:01:34.156Z,105
2018-09-27T14:02:42.801Z,100
2018-09-27T14:03:51.450Z,100
2018-09-27T14:05:00.096Z,100
2018-09-27T14:06:09.023Z,100
2018-09-27T14:07:17.675Z,100
2018-09-27T14:08:26.584Z,100
2018-09-27T14:09:35.763Z,100
2018-09-27T14:10:44.410Z,95
2018-09-27T14:11:53.065Z,95
2018-09-27T14:13:01.709Z,95
2018-09-27T14:14:10.362Z,95
2018-09-27T14:15:19.003Z,95
2018-09-27T14:16:27.658Z,95
2018-09-27T14:17:36.565Z,90
2018-09-27T14:18:45.221Z,90
2018-09-27T14:19:54.123Z,90
2018-09-27T14:21:02.782Z,90
2018-09-27T14:22:11.427Z,90
2018-09-27T14:23:20.077Z,90
2018-09-27T14:24:28.982Z,90
2018-09-27T14:25:37.675Z,90
2018-09-27T14:26:46.284Z,85
2018-09-27T14:27:54.945Z,85
2018-09-27T14:29:03.587Z,85
2018-09-27T14:30:12.488Z,85
2018-09-27T14:31:21.141Z,85
2018-09-27T14:32:29.787Z,85
2018-09-27T14:33:38.447Z,85
2018-09-27T14:34:47.084Z,90
2018-09-27T14:35:55.735Z,85
2018-09-27T14:37:04.647Z,85
2018-09-27T14:38:13.301Z,85
2018-09-27T14:39:22.215Z,85
2018-09-27T14:40:30.865Z,85
2018-09-27T14:41:39.591Z,85
2018-09-27T14:42:48.161Z,85
2018-09-27T14:43:57.069Z,85
2018-09-27T14:45:05.718Z,85
2018-09-27T14:46:14.622Z,80
2018-09-27T14:47:23.268Z,80
2018-09-27T14:48:31.919Z,80
2018-09-27T14:49:40.568Z,80
2018-09-27T14:50:49.215Z,80
2018-09-27T14:51:57.859Z,80
2018-09-27T14:53:06.515Z,80
2018-09-27T14:54:15.158Z,75
2018-09-27T14:55:23.812Z,75
2018-09-27T14:56:32.933Z,75
2018-09-27T14:57:41.584Z,75
2018-09-27T14:58:50.231Z,75
2018-09-27T14:59:59.159Z,75
2018-09-27T15:01:07.808Z,75
2018-09-27T15:02:16.561Z,70
2018-09-27T15:03:25.507Z,70
2018-09-27T15:04:34.784Z,70
2018-09-27T15:05:43.358Z,70
2018-09-27T15:06:52.432Z,70
2018-09-27T15:08:01.080Z,70
2018-09-27T15:09:09.748Z,70
2018-09-27T15:10:18.771Z,65
2018-09-27T15:11:27.697Z,65
2018-09-27T15:12:36.764Z,70
2018-09-27T15:13:45.350Z,70
2018-09-27T15:14:54.001Z,70
2018-09-27T15:16:02.646Z,70
2018-09-27T15:17:11.295Z,70
2018-09-27T15:18:19.940Z,65
2018-09-27T15:19:28.593Z,65
2018-09-27T15:20:37.237Z,65
2018-09-27T15:21:46.154Z,65
2018-09-27T15:22:54.805Z,65
2018-09-27T15:24:03.716Z,65
2018-09-27T15:25:12.631Z,65
2018-09-27T15:26:21.275Z,60
2018-09-27T15:27:29.923Z,60
2018-09-27T15:28:38.567Z,60
2018-09-27T15:29:47.218Z,60
2018-09-27T15:30:55.865Z,60
2018-09-27T15:32:04.528Z,60
2018-09-27T15:33:13.165Z,60
2018-09-27T15:34:21.808Z,55
2018-09-27T15:35:30.456Z,55
2018-09-27T15:36:39.201Z,55
2018-09-27T15:37:47.755Z,55
2018-09-27T15:38:56.398Z,55
2018-09-27T15:40:05.098Z,55
2018-09-27T15:41:13.696Z,55
2018-09-27T15:42:22.872Z,55
2018-09-27T15:43:31.524Z,55
2018-09-27T15:44:40.442Z,55
2018-09-27T15:45:49.093Z,55
2018-09-27T15:46:57.734Z,50
2018-09-27T15:48:06.652Z,50
2018-09-27T15:49:15.297Z,50
2018-09-27T15:50:23.946Z,50
2018-09-27T15:51:32.625Z,50
2018-09-27T15:52:41.597Z,50
2018-09-27T15:53:50.246Z,50
2018-09-27T15:54:59.164Z,50
2018-09-27T15:56:07.808Z,50
2018-09-27T15:57:16.719Z,50
2018-09-27T15:58:25.375Z,50
2018-09-27T15:59:34.014Z,45
2018-09-27T16:00:42.672Z,45
2018-09-27T16:01:51.313Z,45
2018-09-27T16:02:59.955Z,45
2018-09-27T16:04:08.655Z,45
2018-09-27T16:05:17.255Z,45
2018-09-27T16:06:25.896Z,45
2018-09-27T16:07:34.543Z,45
2018-09-27T16:08:43.193Z,45
2018-09-27T16:09:51.845Z,45
2018-09-27T16:11:00.489Z,40
2018-09-27T16:12:09.398Z,40
2018-09-27T16:13:18.044Z,40
2018-09-27T16:14:26.699Z,40
2018-09-27T16:15:35.345Z,40
2018-09-27T16:16:43.992Z,40
2018-09-27T16:17:52.638Z,40
2018-09-27T16:19:01.280Z,40